Time;durP1;ratioP1;P1;durP2;ratioP2;P2;SDS_P1;SDS_P2;PMS_P1;PMS_P2;Temp;Humidity;BMP_temperature;BMP_pressure;BME280_temperature;BME280_humidity;BME280_pressure;Samples;Min_cycle;Max_cycle;Signal;HPM_P1;HPM_P2
2023/01/18 00:00:26;;;;;;;9.93;6.27;;;;;;;-1.81;82.44;99043.22;5071639;28;20020;-76
2023/01/18 00:02:53;;;;;;;12.53;6.23;;;;;;;-1.78;82.50;99039.81;5069408;28;20024;-76
2023/01/18 00:05:21;;;;;;;11.03;6.03;;;;;;;-1.76;82.39;99035.53;5071773;28;20024;-76
2023/01/18 00:07:47;;;;;;;9.83;5.93;;;;;;;-1.73;81.99;99038.09;5070874;28;20044;-76
2023/01/18 00:10:12;;;;;;;12.27;6.00;;;;;;;-1.71;81.59;99038.94;5052353;28;20020;-76
2023/01/18 00:12:37;;;;;;;10.70;5.47;;;;;;;-1.70;82.17;99041.47;5067716;28;20020;-76
2023/01/18 00:15:03;;;;;;;10.17;5.60;;;;;;;-1.70;82.09;99033.81;5051802;28;20059;-75
2023/01/18 00:17:29;;;;;;;10.10;5.20;;;;;;;-1.69;82.03;99034.69;5071626;28;20074;-76
2023/01/18 00:19:54;;;;;;;12.70;5.97;;;;;;;-1.68;81.75;99041.47;5070107;28;20021;-76
2023/01/18 00:22:19;;;;;;;11.13;5.17;;;;;;;-1.68;81.86;99044.84;5069992;28;20033;-76
2023/01/18 00:24:44;;;;;;;10.47;5.50;;;;;;;-1.66;81.85;99032.13;5070582;28;20024;-76
2023/01/18 00:27:10;;;;;;;12.73;5.43;;;;;;;-1.64;81.85;99035.50;5071733;28;20029;-76
2023/01/18 00:29:35;;;;;;;9.73;5.23;;;;;;;-1.62;81.22;99043.97;5070098;28;20081;-76
2023/01/18 00:32:00;;;;;;;10.10;5.80;;;;;;;-1.61;81.72;99044.84;5070577;28;20028;-76
2023/01/18 00:34:26;;;;;;;10.67;5.30;;;;;;;-1.61;81.34;99044.84;5058624;28;20025;-76
2023/01/18 00:36:51;;;;;;;10.87;5.70;;;;;;;-1.62;81.53;99049.06;5061075;28;20111;-76
2023/01/18 00:39:16;;;;;;;11.63;5.53;;;;;;;-1.62;81.88;99054.16;5051044;28;20043;-76
2023/01/18 00:43:37;;;;;;;10.67;5.50;;;;;;;-1.62;81.10;99059.28;5071735;28;20117;-75
2023/01/18 00:44:27;;;;;;;10.50;5.67;;;;;;;-1.62;81.68;99054.16;5066973;28;20491;-76
2023/01/18 00:46:54;;;;;;;8.63;5.10;;;;;;;-1.64;81.37;99053.34;5065434;28;20036;-76
2023/01/18 00:49:20;;;;;;;10.57;5.20;;;;;;;-1.63;82.30;99044.00;5070026;28;20029;-76
2023/01/18 00:51:45;;;;;;;10.67;4.93;;;;;;;-1.66;82.19;99049.09;5063586;28;20028;-76
2023/01/18 00:54:11;;;;;;;9.93;5.30;;;;;;;-1.69;82.10;99053.34;5067242;28;20392;-76
2023/01/18 00:56:36;;;;;;;9.53;5.07;;;;;;;-1.71;81.61;99056.78;5057085;28;20040;-75
2023/01/18 00:59:01;;;;;;;10.37;5.60;;;;;;;-1.75;81.98;99052.53;5052590;28;20468;-76
2023/01/18 01:01:26;;;;;;;10.33;5.30;;;;;;;-1.77;82.07;99069.53;5067128;28;20031;-76
2023/01/18 01:06:45;;;;;;;11.03;5.73;;;;;;;-1.81;82.95;99067.88;5063135;28;20133;-76
2023/01/18 01:09:13;;;;;;;9.77;5.27;;;;;;;-1.83;82.67;99065.31;5070805;28;20052;-75
2023/01/18 01:11:38;;;;;;;9.40;5.33;;;;;;;-1.84;82.27;99067.03;5059689;28;20036;-76
2023/01/18 01:27:43;;;;;;;10.50;5.27;;;;;;;-1.89;82.01;99073.00;5058900;28;20086;-76
2023/01/18 01:30:09;;;;;;;9.10;5.27;;;;;;;-1.92;82.54;99067.91;5051651;28;20029;-75
2023/01/18 01:32:34;;;;;;;11.20;5.27;;;;;;;-1.96;82.59;99079.81;5068349;28;20491;-75
2023/01/18 01:34:59;;;;;;;9.93;5.10;;;;;;;-1.96;82.69;99079.81;5052802;28;20208;-76
2023/01/18 01:37:24;;;;;;;11.63;5.63;;;;;;;-1.99;82.77;99083.22;5057432;28;20484;-76
2023/01/18 01:39:50;;;;;;;14.03;6.07;;;;;;;-1.99;82.42;99083.22;5063410;28;20480;-75
2023/01/18 01:42:15;;;;;;;11.47;5.70;;;;;;;-2.00;82.52;99078.97;5068480;28;20020;-76
2023/01/18 01:44:46;;;;;;;10.37;5.27;;;;;;;-2.00;82.81;99078.97;5074672;28;20020;-76
2023/01/18 01:47:26;;;;;;;9.38;5.00;;;;;;;-1.98;82.78;99096.81;5064647;28;20025;-76
2023/01/18 01:49:57;;;;;;;11.83;5.47;;;;;;;-1.99;82.66;99098.50;5059277;28;20242;-76
2023/01/18 01:52:29;;;;;;;10.82;5.20;;;;;;;-2.00;82.40;99094.25;5073180;28;20590;-76
2023/01/18 01:55:01;;;;;;;;;;;;;;;-1.95;82.44;99101.06;5064612;28;20035;-76
2023/01/18 01:57:50;;;;;;;10.57;5.55;;;;;;;-1.95;82.96;99101.06;5070601;28;19912;-76
2023/01/18 02:00:19;;;;;;;10.47;5.87;;;;;;;-1.96;82.86;99099.34;5052470;28;20384;-76
2023/01/18 02:02:59;;;;;;;12.93;6.00;;;;;;;-1.96;82.22;99094.25;5071916;28;20021;-76
2023/01/18 02:05:25;;;;;;;9.17;4.93;;;;;;;-1.96;82.46;99095.09;5042270;28;20036;-76
2023/01/18 02:07:52;;;;;;;10.37;5.63;;;;;;;-1.97;82.44;99093.44;5069222;28;20094;-76
2023/01/18 02:10:18;;;;;;;11.17;5.80;;;;;;;-1.95;81.68;99095.97;5073606;28;20036;-76
2023/01/18 02:12:47;;;;;;;10.17;5.40;;;;;;;-1.96;82.66;99095.09;5073055;28;20028;-75
2023/01/18 02:15:13;;;;;;;11.33;5.17;;;;;;;-1.94;82.77;99092.56;5072049;28;20036;-76
2023/01/18 02:18:09;;;;;;;10.60;5.57;;;;;;;-1.96;81.86;99095.09;5071400;28;20110;-75
2023/01/18 02:20:37;;;;;;;11.40;5.77;;;;;;;-1.98;82.63;99095.09;5067953;28;20032;-76
2023/01/18 02:23:32;;;;;;;9.80;5.10;;;;;;;-1.96;82.37;99104.44;5070211;28;20204;-75
2023/01/18 02:26:24;;;;;;;9.60;5.40;;;;;;;-1.98;82.73;99105.31;5072953;28;20032;-76
2023/01/18 02:29:01;;;;;;;10.60;5.37;;;;;;;-1.99;82.47;99105.31;5069480;28;20031;-76
2023/01/18 02:31:37;;;;;;;9.27;5.07;;;;;;;-2.00;82.46;99104.47;5056749;28;20110;-75
2023/01/18 02:34:15;;;;;;;9.40;5.40;;;;;;;-2.02;83.04;99108.69;5070646;28;20032;-76
2023/01/18 02:36:55;;;;;;;9.27;4.83;;;;;;;-2.01;83.11;99114.66;5073691;28;20036;-76
2023/01/18 02:39:37;;;;;;;11.00;5.70;;;;;;;-2.04;83.05;99118.06;5065892;28;20467;-76
2023/01/18 02:48:13;;;;;;;9.73;5.10;;;;;;;-2.04;82.93;99118.06;5063037;28;20032;-76
2023/01/18 02:50:39;;;;;;;11.77;5.53;;;;;;;-2.05;82.27;99120.63;5071757;28;20059;-75
2023/01/18 02:53:04;;;;;;;11.27;5.23;;;;;;;-2.06;83.05;99119.78;5070148;28;20060;-76
2023/01/18 02:55:33;;;;;;;9.43;5.07;;;;;;;-2.08;83.21;99116.38;5068807;28;20055;-76
2023/01/18 02:58:17;;;;;;;10.10;5.00;;;;;;;-2.07;83.52;99122.31;5065222;28;20028;-76
2023/01/18 03:00:51;;;;;;;10.17;5.00;;;;;;;-2.10;82.97;99120.63;5054214;28;20445;-76
2023/01/18 03:03:20;;;;;;;9.50;4.73;;;;;;;-2.11;83.46;99121.47;5066607;28;20079;-76
2023/01/18 03:05:47;;;;;;;9.17;4.87;;;;;;;-2.13;83.35;99125.72;5063047;28;20028;-76
2023/01/18 03:08:24;;;;;;;11.03;5.10;;;;;;;-2.14;83.23;99121.47;5072554;28;20079;-75
2023/01/18 03:10:58;;;;;;;9.80;5.23;;;;;;;-2.13;83.39;99128.28;5072109;28;20123;-75
2023/01/18 03:13:50;;;;;;;9.23;4.60;;;;;;;-2.15;83.11;99119.78;5071851;28;20030;-76
2023/01/18 03:16:24;;;;;;;11.95;4.95;;;;;;;-2.16;83.81;99120.63;5056485;28;20136;-76
2023/01/18 03:19:03;;;;;;;9.13;4.80;;;;;;;-2.15;82.77;99119.78;5056333;28;20035;-76
2023/01/18 03:21:47;;;;;;;7.90;4.53;;;;;;;-2.18;82.80;99120.66;5071374;28;20471;-76
2023/01/18 03:24:15;;;;;;;9.10;4.93;;;;;;;-2.20;83.33;99124.03;5070324;28;20028;-75
2023/01/18 03:26:47;;;;;;;7.17;4.23;;;;;;;-2.22;83.56;99128.31;5072180;28;20029;-76
2023/01/18 03:35:02;;;;;;;11.13;4.53;;;;;;;-2.27;83.60;99132.53;5066351;28;20510;-76
2023/01/18 03:37:32;;;;;;;11.37;4.97;;;;;;;-2.31;83.48;99135.09;5053617;28;20028;-76
2023/01/18 03:40:04;;;;;;;10.00;4.97;;;;;;;-2.31;83.14;99139.34;5067392;28;20039;-76
2023/01/18 03:42:36;;;;;;;9.23;4.83;;;;;;;-2.33;83.42;99141.06;5071662;28;20021;-76
2023/01/18 03:45:11;;;;;;;10.63;4.97;;;;;;;-2.36;83.70;99144.44;5064770;28;20033;-75
2023/01/18 03:47:37;;;;;;;8.30;4.67;;;;;;;-2.41;82.92;99151.25;5065485;28;20029;-76
2023/01/18 03:50:02;;;;;;;9.10;4.60;;;;;;;-2.46;83.36;99160.56;5055942;28;20028;-75
2023/01/18 03:52:36;;;;;;;11.00;5.23;;;;;;;-2.49;83.51;99163.09;5061256;28;20028;-75
2023/01/18 03:55:15;;;;;;;14.63;5.80;;;;;;;-2.50;84.08;99164.81;5065097;28;20082;-75
2023/01/18 03:57:53;;;;;;;13.83;6.33;;;;;;;-2.52;83.29;99163.09;5066976;28;20043;-76
2023/01/18 04:00:19;;;;;;;14.23;7.60;;;;;;;-2.54;83.46;99163.13;5061527;28;20040;-75
2023/01/18 04:02:47;;;;;;;12.93;6.43;;;;;;;-2.55;83.82;99170.72;5059348;28;20033;-75
2023/01/18 04:05:12;;;;;;;10.90;5.73;;;;;;;-2.55;83.67;99170.72;5054955;28;20031;-76
2023/01/18 04:07:37;;;;;;;10.43;5.23;;;;;;;-2.56;83.43;99174.16;5060314;28;20048;-76
2023/01/18 04:10:03;;;;;;;12.07;5.60;;;;;;;-2.56;83.97;99171.63;5068052;28;20033;-75
2023/01/18 04:12:30;;;;;;;10.97;5.73;;;;;;;-2.57;83.65;99170.75;5069567;28;20385;-76
2023/01/18 04:14:55;;;;;;;9.33;5.40;;;;;;;-2.57;83.97;99177.56;5071363;28;20024;-76
2023/01/18 04:17:21;;;;;;;10.67;5.40;;;;;;;-2.57;83.85;99178.38;5066292;28;20024;-76
2023/01/18 04:19:46;;;;;;;11.13;5.53;;;;;;;-2.55;83.71;99180.91;5057254;28;20369;-76
2023/01/18 04:22:11;;;;;;;9.77;5.07;;;;;;;-2.55;84.04;99184.34;5059465;28;20059;-76
2023/01/18 04:24:36;;;;;;;10.97;5.13;;;;;;;-2.53;83.89;99181.78;5068309;28;20035;-75
2023/01/18 04:27:02;;;;;;;8.83;4.73;;;;;;;-2.53;84.49;99182.63;5061434;28;20024;-76
2023/01/18 04:29:28;;;;;;;10.47;5.00;;;;;;;-2.51;84.03;99180.06;5070366;28;20028;-76
2023/01/18 04:31:53;;;;;;;11.03;5.20;;;;;;;-2.53;84.02;99181.78;5068526;28;20036;-75
2023/01/18 04:34:21;;;;;;;9.97;5.27;;;;;;;-2.55;83.64;99189.44;5055932;28;20452;-75
2023/01/18 04:36:46;;;;;;;9.33;5.40;;;;;;;-2.55;83.95;99186.00;5060146;28;20045;-76
2023/01/18 04:39:12;;;;;;;10.17;5.03;;;;;;;-2.56;84.38;99194.53;5056038;28;20438;-75
2023/01/18 04:41:37;;;;;;;10.37;4.90;;;;;;;-2.55;84.58;99188.56;5066847;28;20030;-75
2023/01/18 04:44:03;;;;;;;10.07;5.00;;;;;;;-2.54;83.86;99188.56;5066459;28;20044;-75
2023/01/18 04:46:28;;;;;;;10.47;4.90;;;;;;;-2.53;84.19;99194.50;5051436;28;20047;-76
2023/01/18 04:48:54;;;;;;;11.47;5.43;;;;;;;-2.53;83.72;99194.50;5064750;28;20364;-75
2023/01/18 04:51:19;;;;;;;9.37;4.70;;;;;;;-2.54;83.88;99196.22;5067631;28;20397;-76
2023/01/18 04:53:45;;;;;;;13.20;5.60;;;;;;;-2.58;83.90;99197.06;5070432;28;20032;-76
2023/01/18 04:56:11;;;;;;;10.10;5.23;;;;;;;-2.61;83.91;99200.47;5071551;28;20016;-76
2023/01/18 04:58:36;;;;;;;11.33;5.70;;;;;;;-2.63;84.07;99199.59;5068453;28;20430;-76
2023/01/18 05:01:07;;;;;;;13.23;5.63;;;;;;;-2.63;84.50;99201.28;5066289;28;20059;-75
2023/01/18 05:03:36;;;;;;;9.77;5.40;;;;;;;-2.64;84.30;99202.13;5068222;28;20024;-75
2023/01/18 05:06:03;;;;;;;8.50;4.57;;;;;;;-2.62;84.14;99214.03;5050705;28;20429;-75
2023/01/18 05:08:29;;;;;;;8.77;4.80;;;;;;;-2.61;84.78;99208.09;5069847;28;20075;-75
2023/01/18 05:11:03;;;;;;;11.03;5.63;;;;;;;-2.60;84.33;99219.09;5070652;28;20471;-76
2023/01/18 05:13:29;;;;;;;14.20;5.83;;;;;;;-2.60;84.23;99219.97;5067248;28;20024;-76
2023/01/18 05:15:55;;;;;;;10.77;5.53;;;;;;;-2.58;83.98;99226.78;5071276;28;20082;-76
2023/01/18 05:18:20;;;;;;;9.27;5.10;;;;;;;-2.58;83.57;99225.06;5067873;28;20103;-76
2023/01/18 05:20:47;;;;;;;9.60;5.30;;;;;;;-2.57;84.23;99225.94;5068022;28;20454;-76
2023/01/18 05:23:13;;;;;;;10.53;5.23;;;;;;;-2.58;84.42;99224.22;5064506;28;20108;-76
2023/01/18 05:25:38;;;;;;;10.20;5.63;;;;;;;-2.58;84.38;99227.59;5065032;28;20109;-76
2023/01/18 05:28:05;;;;;;;10.63;5.30;;;;;;;-2.57;83.92;99233.56;5058437;28;20025;-76
2023/01/18 05:30:30;;;;;;;13.23;6.20;;;;;;;-2.58;84.01;99231.88;5064351;28;20032;-75
2023/01/18 05:32:56;;;;;;;11.23;5.50;;;;;;;-2.57;84.35;99236.09;5074099;28;20074;-75
2023/01/18 05:35:21;;;;;;;8.93;5.10;;;;;;;-2.59;83.63;99241.19;5061905;28;20040;-75
2023/01/18 05:37:48;;;;;;;12.83;5.27;;;;;;;-2.61;84.36;99241.19;5058063;28;20044;-80
2023/01/18 05:40:13;;;;;;;11.40;5.80;;;;;;;-2.62;84.27;99242.03;5069085;28;20055;-76
2023/01/18 05:42:39;;;;;;;11.07;5.47;;;;;;;-2.63;83.87;99242.00;5057926;28;20072;-76
2023/01/18 05:45:05;;;;;;;10.73;5.80;;;;;;;-2.65;84.02;99252.19;5065413;28;20028;-75
2023/01/18 05:47:30;;;;;;;12.53;5.70;;;;;;;-2.67;83.99;99253.91;5040000;28;20056;-76
2023/01/18 05:49:56;;;;;;;11.00;5.30;;;;;;;-2.72;84.13;99255.56;5069978;28;20071;-76
2023/01/18 05:52:22;;;;;;;10.93;5.93;;;;;;;-2.75;84.98;99263.22;5057761;28;20033;-76
2023/01/18 05:54:47;;;;;;;11.43;6.07;;;;;;;-2.78;84.33;99261.50;5057809;28;20119;-76
2023/01/18 05:57:12;;;;;;;12.30;5.77;;;;;;;-2.80;84.63;99262.34;5050072;28;20055;-76
2023/01/18 05:59:38;;;;;;;12.30;6.10;;;;;;;-2.81;84.79;99265.75;5065261;28;20052;-76
2023/01/18 06:02:03;;;;;;;11.63;5.20;;;;;;;-2.83;84.27;99269.97;5063723;28;20062;-76
2023/01/18 06:04:28;;;;;;;10.83;6.07;;;;;;;-2.84;84.33;99260.63;5056085;28;20029;-76
2023/01/18 06:06:54;;;;;;;10.97;6.13;;;;;;;-2.86;84.46;99263.19;5037227;28;20059;-76
2023/01/18 06:09:19;;;;;;;14.13;6.23;;;;;;;-2.87;84.50;99270.78;5055635;28;20024;-76
2023/01/18 06:11:44;;;;;;;11.73;6.10;;;;;;;-2.91;84.51;99275.91;5055792;28;20131;-76
2023/01/18 06:14:09;;;;;;;13.00;6.77;;;;;;;-2.94;84.49;99275.88;5056630;28;20025;-76
2023/01/18 06:16:35;;;;;;;11.93;5.90;;;;;;;-2.96;84.51;99277.56;5054672;28;20387;-76
2023/01/18 06:19:00;;;;;;;12.90;6.40;;;;;;;-2.97;84.60;99287.72;5063348;28;20025;-76
2023/01/18 06:21:25;;;;;;;11.33;6.33;;;;;;;-3.00;84.68;99291.13;5068369;28;20028;-76
2023/01/18 06:23:50;;;;;;;10.47;6.03;;;;;;;-3.01;84.93;99294.50;5073064;28;20029;-76
2023/01/18 06:26:16;;;;;;;10.57;5.90;;;;;;;-3.01;84.15;99293.66;5069180;28;20379;-76
2023/01/18 06:28:41;;;;;;;14.83;6.63;;;;;;;-3.03;84.93;99301.28;5071848;28;20020;-76
2023/01/18 06:31:07;;;;;;;12.13;6.63;;;;;;;-3.04;84.77;99304.66;5072703;28;20464;-76
2023/01/18 06:33:32;;;;;;;13.83;6.70;;;;;;;-3.06;84.77;99306.34;5070407;28;20020;-75
2023/01/18 06:35:58;;;;;;;11.20;6.43;;;;;;;-3.07;84.69;99314.81;5071389;28;20036;-76
2023/01/18 06:38:23;;;;;;;11.83;6.57;;;;;;;-3.08;85.15;99313.97;5072656;28;20028;-76
2023/01/18 06:40:48;;;;;;;12.70;7.00;;;;;;;-3.10;85.09;99314.81;5073575;28;20111;-76
2023/01/18 06:43:14;;;;;;;12.23;6.80;;;;;;;-3.12;84.99;99316.50;5066416;28;20521;-75
2023/01/18 06:45:40;;;;;;;11.93;6.83;;;;;;;-3.14;85.15;99319.03;5065695;28;20037;-76
2023/01/18 06:48:05;;;;;;;16.10;7.33;;;;;;;-3.16;84.87;99320.69;5064773;28;20021;-76
2023/01/18 06:50:31;;;;;;;15.90;7.57;;;;;;;-3.18;85.18;99321.53;5072585;28;20077;-76
2023/01/18 06:52:56;;;;;;;16.53;7.67;;;;;;;-3.20;85.14;99324.94;5071616;28;20471;-76
2023/01/18 06:55:21;;;;;;;13.97;7.50;;;;;;;-3.21;84.79;99317.31;5073247;28;20032;-76
2023/01/18 06:57:47;;;;;;;13.37;7.53;;;;;;;-3.23;85.01;99330.00;5050906;28;20040;-76
2023/01/18 07:00:13;;;;;;;13.93;7.10;;;;;;;-3.23;85.45;99330.00;5065581;28;20047;-76
2023/01/18 07:02:38;;;;;;;13.73;7.57;;;;;;;-3.22;85.28;99336.78;5070232;28;20535;-76
2023/01/18 07:05:04;;;;;;;13.93;7.60;;;;;;;-3.22;85.12;99346.97;5070623;28;20035;-75
2023/01/18 07:07:30;;;;;;;13.67;6.93;;;;;;;-3.22;85.07;99344.41;5071021;28;20075;-76
2023/01/18 07:09:56;;;;;;;14.40;7.53;;;;;;;-3.22;85.51;99349.50;5072804;28;20476;-76
2023/01/18 07:12:21;;;;;;;16.00;7.70;;;;;;;-3.23;85.20;99360.50;5065808;28;20056;-75
2023/01/18 07:14:47;;;;;;;13.67;7.43;;;;;;;-3.21;85.36;99361.38;5067947;28;20052;-76
2023/01/18 07:17:13;;;;;;;13.47;7.53;;;;;;;-3.21;85.61;99358.84;5065770;28;20029;-76
2023/01/18 07:19:38;;;;;;;14.80;7.50;;;;;;;-3.20;85.13;99355.44;5065531;28;20036;-76
2023/01/18 07:22:03;;;;;;;15.90;7.33;;;;;;;-3.20;85.01;99359.69;5067403;28;20562;-76
2023/01/18 07:24:29;;;;;;;14.40;8.10;;;;;;;-3.22;85.24;99362.22;5058074;28;20021;-76
2023/01/18 07:26:54;;;;;;;16.27;7.90;;;;;;;-3.24;85.43;99366.44;5063372;28;20029;-76
2023/01/18 07:29:20;;;;;;;14.97;7.30;;;;;;;-3.25;85.34;99372.41;5061442;28;20028;-76
2023/01/18 07:31:46;;;;;;;15.17;7.43;;;;;;;-3.26;85.58;99370.69;5046628;28;20039;-77
2023/01/18 07:34:12;;;;;;;11.57;6.90;;;;;;;-3.24;85.32;99375.78;5062363;28;20025;-76
2023/01/18 07:36:38;;;;;;;16.43;6.97;;;;;;;-3.24;85.41;99371.53;5059634;28;20020;-76
2023/01/18 07:39:05;;;;;;;15.50;7.50;;;;;;;-3.22;85.13;99377.47;5069238;28;20066;-76
2023/01/18 07:41:30;;;;;;;16.20;7.80;;;;;;;-3.22;85.61;99377.47;5052722;28;20029;-76
2023/01/18 07:43:56;;;;;;;12.70;6.97;;;;;;;-3.23;85.28;99380.84;5054119;28;20039;-76
2023/01/18 07:46:22;;;;;;;14.07;7.13;;;;;;;-3.23;86.06;99380.84;5066153;28;20052;-76
2023/01/18 07:48:47;;;;;;;14.13;7.10;;;;;;;-3.22;85.38;99387.66;5063927;28;20435;-76
2023/01/18 07:51:14;;;;;;;13.43;7.23;;;;;;;-3.21;85.49;99389.34;5071617;28;20520;-76
2023/01/18 07:53:40;;;;;;;13.93;7.43;;;;;;;-3.18;85.37;99387.69;5059595;28;20193;-76
2023/01/18 07:56:08;;;;;;;13.43;7.27;;;;;;;-3.17;85.76;99394.47;5067291;28;20758;-76
2023/01/18 07:58:36;;;;;;;13.33;7.60;;;;;;;-3.16;85.32;99396.19;5071032;28;20399;-76
2023/01/18 08:01:08;;;;;;;15.63;7.77;;;;;;;-3.16;85.45;99396.19;5067164;28;20032;-76
2023/01/18 08:03:35;;;;;;;15.90;7.65;;;;;;;-3.16;85.31;99396.19;5070931;28;20035;-76
2023/01/18 08:06:01;;;;;;;16.03;8.10;;;;;;;-3.16;85.28;99401.25;5068991;28;20020;-76
2023/01/18 08:08:27;;;;;;;13.23;7.37;;;;;;;-3.14;85.80;99407.22;5071028;28;20051;-76
2023/01/18 08:10:55;;;;;;;12.77;6.93;;;;;;;-3.12;85.72;99408.91;5063087;28;20078;-76
2023/01/18 08:13:21;;;;;;;13.83;7.63;;;;;;;-3.09;85.75;99408.09;5051976;28;20072;-76
2023/01/18 08:15:46;;;;;;;13.63;7.60;;;;;;;-3.06;85.47;99411.50;5060207;28;20066;-76
2023/01/18 08:18:13;;;;;;;13.70;7.27;;;;;;;-3.03;85.28;99414.91;5070788;28;20032;-76
2023/01/18 08:20:42;;;;;;;16.37;8.17;;;;;;;-3.02;85.84;99420.00;5066249;28;20020;-76
2023/01/18 08:23:07;;;;;;;12.63;6.97;;;;;;;-3.01;85.46;99426.81;5052363;28;20036;-76
2023/01/18 08:25:32;;;;;;;15.07;7.53;;;;;;;-2.99;85.87;99425.13;5060555;28;20028;-76
2023/01/18 08:28:00;;;;;;;13.20;7.13;;;;;;;-2.96;85.66;99432.78;5064137;28;20105;-76
2023/01/18 08:30:29;;;;;;;13.17;7.03;;;;;;;-2.95;85.52;99426.84;5038952;28;20016;-76
2023/01/18 08:32:56;;;;;;;14.53;7.40;;;;;;;-2.94;85.87;99428.56;5061415;28;20017;-76
2023/01/18 08:35:21;;;;;;;18.37;7.83;;;;;;;-2.91;85.58;99435.34;5069614;28;20385;-76
2023/01/18 08:37:47;;;;;;;16.50;8.40;;;;;;;-2.90;85.28;99440.44;5065697;28;20020;-76
2023/01/18 08:40:12;;;;;;;15.97;8.07;;;;;;;-2.86;85.41;99440.47;5059846;28;20345;-76
2023/01/18 08:42:37;;;;;;;13.30;6.97;;;;;;;-2.85;85.18;99437.06;5064764;28;20531;-76
2023/01/18 08:45:03;;;;;;;13.00;7.63;;;;;;;-2.83;85.39;99440.47;5063481;28;20550;-76
2023/01/18 08:47:28;;;;;;;13.80;7.43;;;;;;;-2.79;85.53;99439.66;5061533;28;20031;-76
2023/01/18 08:49:54;;;;;;;14.70;7.83;;;;;;;-2.76;85.56;99443.06;5072559;28;20021;-76
2023/01/18 08:52:19;;;;;;;15.73;8.30;;;;;;;-2.73;85.45;99446.47;5068627;28;20091;-76
2023/01/18 08:54:45;;;;;;;18.97;8.43;;;;;;;-2.71;85.71;99455.81;5058362;28;20037;-76
2023/01/18 08:57:10;;;;;;;15.53;8.10;;;;;;;-2.69;85.73;99458.41;5073933;28;20518;-76
2023/01/18 08:59:36;;;;;;;16.70;7.80;;;;;;;-2.67;85.59;99467.72;5075389;28;20070;-76
2023/01/18 09:02:01;;;;;;;17.77;8.00;;;;;;;-2.64;85.73;99466.88;5070439;28;20092;-76
2023/01/18 09:04:28;;;;;;;15.47;7.77;;;;;;;-2.61;86.00;99462.69;5062814;28;20095;-75
2023/01/18 09:06:53;;;;;;;13.40;7.50;;;;;;;-2.57;85.82;99467.81;5067651;28;20029;-76
2023/01/18 09:09:19;;;;;;;13.77;7.30;;;;;;;-2.54;85.89;99472.88;5068599;28;20425;-75
2023/01/18 09:11:44;;;;;;;14.97;8.33;;;;;;;-2.51;85.46;99475.44;5072521;28;20475;-75
2023/01/18 09:14:09;;;;;;;16.53;8.07;;;;;;;-2.47;85.81;99477.19;5061327;28;20063;-75
2023/01/18 09:16:34;;;;;;;14.77;7.93;;;;;;;-2.43;85.36;99476.34;5066937;28;20100;-75
2023/01/18 09:19:00;;;;;;;13.87;7.73;;;;;;;-2.38;85.80;99479.75;5066538;28;20031;-75
2023/01/18 09:21:29;;;;;;;14.13;8.07;;;;;;;-2.33;85.48;99487.44;5065438;28;20058;-75
2023/01/18 09:23:54;;;;;;;12.23;7.33;;;;;;;-2.29;85.92;99481.50;5062288;28;20104;-75
2023/01/18 09:26:19;;;;;;;12.67;7.53;;;;;;;-2.25;85.05;99492.56;5059013;28;20115;-76
2023/01/18 09:28:51;;;;;;;13.87;7.67;;;;;;;-2.21;85.36;99502.78;5065711;28;20028;-75
2023/01/18 09:31:18;;;;;;;15.50;8.02;;;;;;;-2.16;85.66;99500.25;5061139;28;20025;-75
2023/01/18 09:33:43;;;;;;;15.97;8.43;;;;;;;-2.12;85.26;99504.53;5065123;28;20025;-76
2023/01/18 09:36:11;;;;;;;11.77;7.50;;;;;;;-2.07;85.57;99510.50;5060310;28;20032;-76
2023/01/18 09:38:37;;;;;;;12.67;7.33;;;;;;;-2.04;85.62;99518.13;5048914;28;20052;-76
2023/01/18 09:41:20;;;;;;;15.83;7.40;;;;;;;-1.99;85.92;99513.91;5059629;28;20083;-76
2023/01/18 09:43:53;;;;;;;12.97;7.47;;;;;;;-1.95;85.33;99513.94;5069352;28;20031;-76
2023/01/18 09:46:22;;;;;;;14.60;7.23;;;;;;;-1.91;85.30;99515.66;5068499;28;20407;-76
2023/01/18 09:49:01;;;;;;;16.20;7.53;;;;;;;-1.87;85.32;99525.84;5061069;28;20074;-76
2023/01/18 09:51:32;;;;;;;14.80;8.00;;;;;;;-1.84;85.08;99522.47;5064161;28;20692;-76
2023/01/18 09:54:22;;;;;;;11.60;7.10;;;;;;;-1.78;85.93;99526.72;5068104;28;20084;-75
2023/01/18 09:56:56;;;;;;;14.33;7.33;;;;;;;-1.75;85.62;99530.16;5066530;28;20060;-75
2023/01/18 09:59:33;;;;;;;12.13;6.93;;;;;;;-1.71;85.90;99529.28;5063773;28;20035;-76
2023/01/18 10:02:02;;;;;;;12.47;6.93;;;;;;;-1.68;85.32;99531.03;5072598;28;20041;-75
2023/01/18 10:04:35;;;;;;;12.97;7.37;;;;;;;-1.64;86.31;99536.97;5069530;28;20021;-76
2023/01/18 10:07:11;;;;;;;13.80;7.20;;;;;;;-1.61;85.50;99527.63;5056410;28;20471;-76
2023/01/18 10:09:43;;;;;;;14.47;7.43;;;;;;;-1.55;85.40;99537.84;5064131;28;20052;-76
2023/01/18 10:12:22;;;;;;;11.57;6.50;;;;;;;-1.50;85.97;99534.47;5064144;28;20051;-76
2023/01/18 10:15:00;;;;;;;13.20;7.40;;;;;;;-1.46;85.46;99539.56;5072949;28;20025;-76
2023/01/18 10:17:37;;;;;;;15.93;8.00;;;;;;;-1.40;86.37;99544.69;5055494;28;20410;-76
2023/01/18 10:20:23;;;;;;;13.13;7.27;;;;;;;-1.34;86.14;99538.75;5073306;28;20104;-76
2023/01/18 10:22:56;;;;;;;12.93;6.77;;;;;;;-1.28;86.42;99538.75;5061396;28;20154;-76
2023/01/18 10:25:33;;;;;;;11.67;6.67;;;;;;;-1.22;86.14;99537.94;5062644;28;20060;-76
2023/01/18 10:28:25;;;;;;;11.80;6.83;;;;;;;-1.15;85.90;99546.44;5070513;28;20035;-76
2023/01/18 10:31:18;;;;;;;11.03;6.70;;;;;;;-1.10;85.74;99543.03;5050652;28;20115;-76
2023/01/18 10:33:45;;;;;;;10.17;6.07;;;;;;;-1.03;85.85;99548.16;5056109;28;20690;-76
2023/01/18 10:36:22;;;;;;;11.00;6.57;;;;;;;-0.98;86.33;99547.31;5054057;28;20037;-76
2023/01/18 10:38:50;;;;;;;12.10;6.13;;;;;;;-0.92;86.08;99544.72;5065208;28;20024;-76
2023/01/18 10:41:24;;;;;;;11.57;6.40;;;;;;;-0.88;86.02;99553.25;5067924;28;20066;-76
2023/01/18 10:43:50;;;;;;;12.37;7.00;;;;;;;-0.82;86.17;99548.13;5056538;28;20040;-76
2023/01/18 10:46:18;;;;;;;11.87;7.10;;;;;;;-0.78;85.77;99544.72;5073048;28;20036;-76
2023/01/18 10:48:47;;;;;;;12.53;6.93;;;;;;;-0.73;85.67;99543.91;5070180;28;20013;-76
2023/01/18 10:51:25;;;;;;;11.53;6.83;;;;;;;-0.69;85.47;99546.44;5066910;28;20029;-76
2023/01/18 10:53:50;;;;;;;13.83;7.50;;;;;;;-0.64;86.21;99552.41;5069903;28;20137;-76
2023/01/18 10:56:18;;;;;;;12.33;7.50;;;;;;;-0.58;85.67;99551.53;5053650;28;20063;-76
2023/01/18 10:58:49;;;;;;;13.07;6.97;;;;;;;-0.52;86.07;99548.13;5053814;28;20033;-76
2023/01/18 11:01:30;;;;;;;15.27;7.43;;;;;;;-0.47;85.82;99549.81;5070228;28;20085;-76
2023/01/18 11:04:05;;;;;;;12.45;7.53;;;;;;;-0.41;85.84;99548.94;5071265;28;21507;-76
2023/01/18 11:06:47;;;;;;;11.00;6.77;;;;;;;-0.35;85.41;99548.09;5068882;28;20088;-76
2023/01/18 11:09:38;;;;;;;11.40;6.90;;;;;;;-0.28;86.12;99552.34;5070768;28;20968;-76
2023/01/18 11:12:40;;;;;;;11.93;6.47;;;;;;;-0.21;85.33;99551.47;5052191;28;20052;-76
2023/01/18 11:15:14;;;;;;;10.98;6.20;;;;;;;-0.14;85.38;99551.44;5052896;28;20029;-76
2023/01/18 11:17:49;;;;;;;11.30;6.57;;;;;;;-0.08;84.92;99557.38;5066613;28;20051;-76
2023/01/18 11:20:20;;;;;;;12.37;6.60;;;;;;;0.00;85.24;99565.06;5059975;28;20361;-76
2023/01/18 11:22:59;;;;;;;10.85;6.20;;;;;;;0.06;85.21;99567.56;5063500;28;20136;-76
2023/01/18 11:25:44;;;;;;;13.33;6.97;;;;;;;0.14;85.32;99570.09;5062705;28;20025;-76
2023/01/18 11:28:18;;;;;;;10.37;6.53;;;;;;;0.21;84.66;99563.25;5060275;28;20021;-76
2023/01/18 11:30:50;;;;;;;12.40;6.70;;;;;;;0.26;84.45;99561.53;5071236;28;20017;-76
2023/01/18 11:33:18;;;;;;;10.93;7.18;;;;;;;0.33;84.74;99559.78;5069533;28;20140;-76
2023/01/18 11:35:44;;;;;;;11.30;7.20;;;;;;;0.37;84.12;99552.09;5065291;28;20040;-76
2023/01/18 11:38:17;;;;;;;12.00;8.20;;;;;;;0.43;84.54;99544.41;5058583;28;20025;-76
2023/01/18 11:40:42;;;;;;;14.00;6.93;;;;;;;0.49;83.97;99553.75;5058955;28;20484;-76
2023/01/18 11:43:21;;;;;;;11.43;6.70;;;;;;;0.54;83.79;99543.47;5066071;28;20154;-76
2023/01/18 11:45:57;;;;;;;10.10;6.50;;;;;;;0.62;84.03;99551.09;5062622;28;20483;-76
2023/01/18 11:48:32;;;;;;;11.30;6.47;;;;;;;0.69;83.84;99550.22;5060367;28;20124;-76
2023/01/18 11:51:01;;;;;;;10.93;6.43;;;;;;;0.75;83.55;99542.53;5060822;28;20040;-76
2023/01/18 11:54:00;;;;;;;10.80;6.30;;;;;;;0.84;83.61;99556.97;5064043;28;20112;-76
2023/01/18 11:56:47;;;;;;;12.30;6.07;;;;;;;0.92;83.24;99550.06;5060844;28;20035;-76
2023/01/18 11:59:45;;;;;;;9.83;6.10;;;;;;;0.99;82.76;99556.00;5062018;28;20171;-76
2023/01/18 12:02:35;;;;;;;11.20;6.00;;;;;;;1.08;82.52;99552.50;5054927;28;20197;-76
2023/01/18 12:05:21;;;;;;;10.77;6.00;;;;;;;1.14;82.34;99552.47;5059055;28;20037;-76